Time;durP1;ratioP1;P1;durP2;ratioP2;P2;SDS_P1;SDS_P2;PMS_P1;PMS_P2;Temp;Humidity;BMP_temperature;BMP_pressure;BME280_temperature;BME280_humidity;BME280_pressure;Samples;Min_cycle;Max_cycle;Signal;HPM_P1;HPM_P2
2021/12/31 00:01:38;;;;;;;70.20;28.70;;;;;;;-2.71;82.63;101008.33;125010;1102;104066;-79
2021/12/31 00:04:07;;;;;;;73.57;29.53;;;;;;;-2.71;82.61;101001.52;124849;1102;104420;-79
2021/12/31 00:06:37;;;;;;;71.00;28.65;;;;;;;-2.70;81.87;100999.84;124983;1102;103932;-79
2021/12/31 00:09:09;;;;;;;63.73;25.93;;;;;;;-2.71;81.68;100995.48;125196;1102;104107;-79
2021/12/31 00:11:39;;;;;;;61.00;27.10;;;;;;;-2.72;82.40;101002.27;125155;1102;103948;-78
2021/12/31 00:14:09;;;;;;;68.00;26.27;;;;;;;-2.74;81.49;101001.22;125133;1102;103936;-79
2021/12/31 00:16:40;;;;;;;65.03;25.93;;;;;;;-2.77;82.27;101011.20;125154;1102;104415;-79
2021/12/31 00:19:11;;;;;;;70.83;27.20;;;;;;;-2.80;82.69;101015.15;125023;1102;103916;-79
2021/12/31 00:21:44;;;;;;;71.17;28.87;;;;;;;-2.78;82.72;101008.48;125041;1102;103935;-79
2021/12/31 00:24:14;;;;;;;68.27;26.70;;;;;;;-2.76;81.88;101000.18;125177;1102;104043;-80
2021/12/31 00:26:43;;;;;;;72.53;27.60;;;;;;;-2.75;82.43;100994.27;125155;1102;104016;-79
2021/12/31 00:29:19;;;;;;;67.60;26.73;;;;;;;-2.73;82.40;100986.70;125066;1102;103960;-79
2021/12/31 00:31:49;;;;;;;64.40;27.20;;;;;;;-2.72;81.56;100985.95;125137;1102;103947;-79
2021/12/31 00:34:21;;;;;;;66.37;26.33;;;;;;;-2.69;82.73;100990.50;125103;1102;103963;-79
2021/12/31 00:36:55;;;;;;;63.63;27.67;;;;;;;-2.67;82.29;100988.97;125130;1102;103981;-79
2021/12/31 00:39:24;;;;;;;65.07;27.20;;;;;;;-2.65;82.64;100980.66;125184;1102;104057;-78
2021/12/31 00:41:54;;;;;;;70.73;27.20;;;;;;;-2.62;83.05;100983.48;125059;1102;103984;-78
2021/12/31 00:44:25;;;;;;;68.70;26.83;;;;;;;-2.60;81.83;100986.20;125222;1102;104021;-78
2021/12/31 00:46:55;;;;;;;71.20;28.23;;;;;;;-2.60;82.09;100987.13;125136;1102;105312;-79
2021/12/31 00:49:24;;;;;;;70.07;27.10;;;;;;;-2.58;82.56;100980.47;125198;1102;103938;-79
2021/12/31 00:51:54;;;;;;;70.10;27.97;;;;;;;-2.59;81.65;100986.36;125166;1102;103931;-79
2021/12/31 00:54:23;;;;;;;67.83;26.67;;;;;;;-2.59;82.92;100986.36;125103;1102;104365;-78
2021/12/31 00:56:55;;;;;;;68.93;27.87;;;;;;;-2.55;82.25;100985.00;125125;1102;104361;-78
2021/12/31 00:59:26;;;;;;;69.53;26.43;;;;;;;-2.55;81.82;100991.04;125160;1102;103929;-79
2021/12/31 01:01:55;;;;;;;61.33;26.40;;;;;;;-2.60;82.97;100989.70;125135;1102;104005;-79
2021/12/31 01:04:25;;;;;;;68.37;26.50;;;;;;;-2.61;82.03;100985.31;125149;1102;105444;-78
2021/12/31 01:07:02;;;;;;;72.17;28.20;;;;;;;-2.61;82.64;100977.61;125051;1102;103977;-78
2021/12/31 01:09:33;;;;;;;69.47;27.00;;;;;;;-2.61;81.73;100971.57;125149;1102;103928;-78
2021/12/31 01:12:05;;;;;;;63.83;26.67;;;;;;;-2.57;81.92;100968.52;125176;1102;103938;-78
2021/12/31 01:14:38;;;;;;;73.30;28.40;;;;;;;-2.54;82.00;100968.80;125171;1102;104056;-79
2021/12/31 01:17:11;;;;;;;68.70;28.20;;;;;;;-2.52;82.63;100957.03;125144;1102;104005;-79
2021/12/31 01:19:47;;;;;;;72.13;27.80;;;;;;;-2.50;82.47;100962.31;125205;1102;103992;-78
2021/12/31 01:22:19;;;;;;;67.87;27.57;;;;;;;-2.48;81.92;100951.41;125171;1102;103928;-79
2021/12/31 01:24:48;;;;;;;63.70;25.50;;;;;;;-2.48;81.91;100945.37;125199;1102;104154;-79
2021/12/31 01:27:20;;;;;;;72.57;28.73;;;;;;;-2.46;82.55;100938.70;125077;1102;103954;-79
2021/12/31 01:29:50;;;;;;;80.60;33.10;;;;;;;-2.42;82.86;100935.67;125151;1102;103925;-79
2021/12/31 01:32:20;;;;;;;84.60;32.50;;;;;;;-2.40;82.65;100926.42;125120;1102;103932;-77
2021/12/31 01:34:50;;;;;;;81.67;34.37;;;;;;;-2.38;83.33;100930.95;125202;1101;103951;-79
2021/12/31 01:37:22;;;;;;;79.97;33.10;;;;;;;-2.39;82.66;100933.39;124966;1102;103923;-78
2021/12/31 01:39:52;;;;;;;85.37;33.27;;;;;;;-2.42;81.95;100930.53;125130;1102;103980;-79
2021/12/31 01:42:28;;;;;;;78.30;35.37;;;;;;;-2.44;81.67;100938.09;125179;1102;103929;-79
2021/12/31 01:45:04;;;;;;;84.40;33.50;;;;;;;-2.47;82.00;100939.48;125171;1102;104013;-79
2021/12/31 01:47:46;;;;;;;88.87;36.23;;;;;;;-2.50;82.27;100928.91;124965;1102;103990;-79
2021/12/31 01:50:19;;;;;;;84.57;35.60;;;;;;;-2.49;82.86;100922.98;125012;1102;104051;-79
2021/12/31 01:52:51;;;;;;;82.87;33.03;;;;;;;-2.47;82.97;100932.66;125210;1101;103964;-79
2021/12/31 01:55:23;;;;;;;88.67;35.20;;;;;;;-2.46;82.72;100928.41;125215;1102;103979;-79
2021/12/31 01:57:54;;;;;;;87.47;35.73;;;;;;;-2.45;81.87;100927.67;125078;1102;104012;-79
2021/12/31 02:00:27;;;;;;;85.07;35.73;;;;;;;-2.46;82.04;100928.41;125156;1102;103954;-79
2021/12/31 02:03:03;;;;;;;82.15;33.05;;;;;;;-2.49;82.73;100933.27;125143;1102;103948;-78
2021/12/31 02:05:33;;;;;;;83.73;34.27;;;;;;;-2.51;82.45;100924.52;125176;1102;104375;-78
2021/12/31 02:08:05;;;;;;;88.83;34.43;;;;;;;-2.54;81.87;100918.34;125081;1102;103964;-78
2021/12/31 02:10:35;;;;;;;83.10;33.33;;;;;;;-2.57;82.13;100912.91;125220;1102;104461;-78
2021/12/31 02:13:07;;;;;;;82.00;34.80;;;;;;;-2.59;82.46;100914.41;125201;1102;103928;-79
2021/12/31 02:15:37;;;;;;;81.90;33.73;;;;;;;-2.62;82.65;100914.12;125030;1102;104389;-79
2021/12/31 02:18:09;;;;;;;85.77;35.60;;;;;;;-2.63;82.71;100919.14;125174;1102;103938;-78
2021/12/31 02:20:44;;;;;;;79.37;32.93;;;;;;;-2.64;82.86;100919.89;125171;1102;103941;-79
2021/12/31 02:23:16;;;;;;;81.23;33.70;;;;;;;-2.65;82.07;100910.36;125128;1102;104016;-79
2021/12/31 02:25:47;;;;;;;87.80;35.07;;;;;;;-2.65;81.94;100903.58;125196;1102;103919;-78
2021/12/31 02:28:18;;;;;;;95.20;36.97;;;;;;;-2.64;82.80;100905.38;125184;1102;104104;-78
2021/12/31 02:30:49;;;;;;;82.50;35.20;;;;;;;-2.63;83.14;100901.16;125198;1102;103922;-78
2021/12/31 02:33:22;;;;;;;84.63;34.90;;;;;;;-2.60;82.63;100902.34;125203;1102;103983;-79
2021/12/31 02:35:53;;;;;;;84.60;32.80;;;;;;;-2.58;82.58;100890.53;125177;1102;103980;-79
2021/12/31 02:38:26;;;;;;;78.63;32.83;;;;;;;-2.55;81.81;100875.41;125109;1102;104002;-79
2021/12/31 02:40:56;;;;;;;82.73;33.13;;;;;;;-2.53;82.33;100878.13;125159;1102;103973;-79
2021/12/31 02:43:26;;;;;;;83.03;31.83;;;;;;;-2.51;82.25;100874.02;125170;1102;103973;-79
2021/12/31 02:45:55;;;;;;;85.63;33.03;;;;;;;-2.50;82.34;100867.23;125203;1102;104056;-79
2021/12/31 02:48:33;;;;;;;81.93;32.00;;;;;;;-2.51;82.30;100880.83;125137;1102;103992;-78
2021/12/31 02:51:06;;;;;;;77.37;31.87;;;;;;;-2.53;82.13;100872.98;125056;1102;104191;-78
2021/12/31 02:53:40;;;;;;;80.47;32.33;;;;;;;-2.54;82.01;100871.16;125108;1102;103954;-79
2021/12/31 02:56:16;;;;;;;79.37;31.12;;;;;;;-2.53;82.17;100850.75;125160;1102;103922;-79
2021/12/31 02:58:47;;;;;;;83.30;31.90;;;;;;;-2.50;82.24;100851.81;125192;1102;104081;-79
2021/12/31 03:01:18;;;;;;;81.03;30.17;;;;;;;-2.48;82.27;100855.42;125147;1102;104104;-79
2021/12/31 03:03:50;;;;;;;78.37;29.83;;;;;;;-2.49;82.62;100874.16;125156;1102;104044;-79
2021/12/31 03:06:23;;;;;;;79.30;31.00;;;;;;;-2.51;81.87;100870.55;125156;1102;104060;-79
2021/12/31 03:08:56;;;;;;;75.27;29.53;;;;;;;-2.52;82.62;100874.80;125187;1102;103947;-79
2021/12/31 03:11:27;;;;;;;78.47;31.37;;;;;;;-2.54;82.76;100871.16;125020;1103;104095;-79
2021/12/31 03:14:00;;;;;;;76.90;30.17;;;;;;;-2.54;82.85;100881.44;125131;1102;105083;-79
2021/12/31 03:16:29;;;;;;;81.23;29.47;;;;;;;-2.56;82.28;100883.86;125111;1102;103926;-80
2021/12/31 03:18:59;;;;;;;73.27;29.13;;;;;;;-2.58;82.77;100895.67;125105;1102;104046;-79
2021/12/31 03:21:30;;;;;;;78.73;30.57;;;;;;;-2.57;82.72;100891.43;125020;1102;103980;-79
2021/12/31 03:24:00;;;;;;;77.37;30.03;;;;;;;-2.56;83.00;100883.86;125212;1102;104210;-79
2021/12/31 03:26:34;;;;;;;80.73;30.97;;;;;;;-2.54;82.30;100887.51;125145;1102;104057;-79
2021/12/31 03:29:06;;;;;;;74.93;28.20;;;;;;;-2.53;82.14;100883.26;125188;1102;104018;-79
2021/12/31 03:31:38;;;;;;;78.30;28.33;;;;;;;-2.55;82.15;100884.79;125139;1102;104025;-79
2021/12/31 03:34:08;;;;;;;81.67;30.97;;;;;;;-2.58;82.34;100884.50;124991;1105;102157;-79
2021/12/31 03:36:39;;;;;;;75.13;28.33;;;;;;;-2.59;82.99;100874.97;125071;1102;103944;-79
2021/12/31 03:39:12;;;;;;;76.57;30.43;;;;;;;-2.62;83.24;100873.01;125176;1102;105454;-79
2021/12/31 03:41:44;;;;;;;72.60;29.10;;;;;;;-2.63;82.93;100884.07;125200;1101;103955;-79
2021/12/31 03:44:16;;;;;;;80.47;30.23;;;;;;;-2.63;82.06;100878.03;125169;1102;103990;-79
2021/12/31 03:46:45;;;;;;;82.17;33.73;;;;;;;-2.65;82.18;100867.62;125208;1102;104009;-78
2021/12/31 03:49:15;;;;;;;84.97;32.87;;;;;;;-2.65;82.99;100865.05;125092;1102;103989;-79
2021/12/31 03:51:45;;;;;;;86.03;31.63;;;;;;;-2.64;82.18;100868.51;125104;1102;103957;-79
2021/12/31 03:54:14;;;;;;;85.33;33.67;;;;;;;-2.64;82.42;100859.12;125075;1102;103977;-79
2021/12/31 03:56:47;;;;;;;84.37;34.27;;;;;;;-2.64;82.57;100850.52;125145;1102;103929;-78
2021/12/31 03:59:16;;;;;;;76.10;30.57;;;;;;;-2.65;82.56;100866.69;125172;1102;103961;-79
2021/12/31 04:01:46;;;;;;;80.77;30.93;;;;;;;-2.68;81.93;100859.63;125132;1102;104140;-79
2021/12/31 04:04:19;;;;;;;75.27;28.27;;;;;;;-2.68;81.78;100862.19;125120;1102;104981;-79
2021/12/31 04:06:49;;;;;;;72.50;27.15;;;;;;;-2.66;83.29;100860.66;125114;1102;103963;-79
2021/12/31 04:09:38;;;;;;;77.00;30.35;;;;;;;-2.62;82.38;100851.56;125083;1102;104064;-79
2021/12/31 04:12:10;;;;;;;68.13;27.43;;;;;;;-2.58;83.12;100854.56;124964;1102;103958;-79
2021/12/31 04:14:40;;;;;;;76.97;29.40;;;;;;;-2.54;83.12;100843.82;125127;1102;103964;-79
2021/12/31 04:17:10;;;;;;;72.63;30.37;;;;;;;-2.48;82.12;100838.33;125250;1102;103923;-78
2021/12/31 04:19:41;;;;;;;76.00;29.97;;;;;;;-2.43;83.15;100843.89;125176;1102;103941;-79
2021/12/31 04:22:13;;;;;;;72.20;28.37;;;;;;;-2.38;82.47;100837.53;125144;1102;103938;-78
2021/12/31 04:24:52;;;;;;;70.50;26.90;;;;;;;-2.35;83.46;100851.56;125230;1102;103980;-78
2021/12/31 04:27:23;;;;;;;78.47;29.57;;;;;;;-2.33;82.94;100851.70;125219;1102;104352;-78
2021/12/31 04:29:53;;;;;;;74.77;29.40;;;;;;;-2.31;83.08;100846.70;125097;1102;103967;-79
2021/12/31 04:32:24;;;;;;;77.97;30.77;;;;;;;-2.31;82.93;100839.89;125177;1102;103980;-79
2021/12/31 04:34:54;;;;;;;68.67;28.40;;;;;;;-2.31;83.16;100847.59;125009;1105;104018;-78
2021/12/31 04:37:27;;;;;;;70.63;27.63;;;;;;;-2.35;82.38;100858.38;125032;1102;103925;-78
2021/12/31 04:39:56;;;;;;;72.30;30.00;;;;;;;-2.40;83.11;100863.09;125126;1102;104014;-79
2021/12/31 04:42:32;;;;;;;88.67;35.53;;;;;;;-2.43;83.01;100867.95;125193;1102;104443;-79
2021/12/31 04:45:02;;;;;;;81.47;34.40;;;;;;;-2.44;82.76;100872.95;124971;1102;103983;-79
2021/12/31 04:47:35;;;;;;;87.33;37.90;;;;;;;-2.49;83.36;100863.88;124992;1102;103990;-79
2021/12/31 04:50:05;;;;;;;91.30;38.40;;;;;;;-2.50;83.32;100862.09;125130;1102;103928;-79
2021/12/31 04:52:35;;;;;;;88.37;38.93;;;;;;;-2.53;82.00;100861.02;125149;1102;105109;-78
2021/12/31 04:55:08;;;;;;;98.00;40.20;;;;;;;-2.53;82.08;100854.99;125089;1102;104089;-78
2021/12/31 04:57:40;;;;;;;94.70;40.12;;;;;;;-2.54;82.83;100859.23;125196;1102;105059;-78
2021/12/31 05:00:13;;;;;;;95.57;41.17;;;;;;;-2.54;82.84;100853.17;125071;1102;104056;-78
2021/12/31 05:02:42;;;;;;;87.10;39.07;;;;;;;-2.56;83.30;100847.89;125131;1102;103977;-79
2021/12/31 05:05:14;;;;;;;90.23;38.17;;;;;;;-2.57;82.57;100852.89;125110;1102;104012;-79
2021/12/31 05:07:43;;;;;;;83.17;36.07;;;;;;;-2.59;82.27;100849.28;125076;1102;103938;-79
2021/12/31 05:10:14;;;;;;;83.90;37.00;;;;;;;-2.61;82.61;100844.00;125009;1102;103931;-79
2021/12/31 05:12:45;;;;;;;85.23;36.17;;;;;;;-2.64;82.54;100843.71;125018;1102;104044;-78
2021/12/31 05:15:14;;;;;;;80.60;36.25;;;;;;;-2.65;82.31;100854.77;125087;1102;103977;-79
2021/12/31 05:17:44;;;;;;;92.77;37.50;;;;;;;-2.65;82.02;100852.20;124896;1102;103918;-79
2021/12/31 05:20:14;;;;;;;83.43;36.43;;;;;;;-2.63;83.04;100850.67;125069;1102;103983;-79
2021/12/31 05:22:43;;;;;;;83.97;35.73;;;;;;;-2.60;82.85;100844.89;125041;1102;103935;-78
2021/12/31 05:25:13;;;;;;;83.77;36.03;;;;;;;-2.58;82.23;100835.69;125140;1102;104135;-79
2021/12/31 05:27:46;;;;;;;85.67;35.27;;;;;;;-2.55;82.26;100838.54;125079;1102;103936;-79
2021/12/31 05:30:15;;;;;;;82.53;35.93;;;;;;;-2.53;82.15;100835.33;125126;1102;103954;-78
2021/12/31 05:32:45;;;;;;;85.80;36.23;;;;;;;-2.53;82.80;100831.87;125041;1102;107898;-78
2021/12/31 05:35:16;;;;;;;80.47;35.23;;;;;;;-2.54;82.21;100842.89;125078;1102;104082;-78
2021/12/31 05:37:45;;;;;;;83.93;33.67;;;;;;;-2.54;82.55;100850.60;125093;1102;104051;-79
2021/12/31 05:40:15;;;;;;;86.07;36.57;;;;;;;-2.53;83.33;100842.14;125186;1102;104057;-78
2021/12/31 05:42:44;;;;;;;89.17;36.93;;;;;;;-2.49;83.04;100839.11;125030;1102;104019;-78
2021/12/31 05:45:14;;;;;;;83.77;36.13;;;;;;;-2.44;82.67;100834.39;125074;1102;103999;-78
2021/12/31 05:47:44;;;;;;;86.80;33.87;;;;;;;-2.40;83.09;100844.17;124910;1102;103951;-78
2021/12/31 05:50:27;;;;;;;81.53;34.13;;;;;;;-2.39;83.58;100835.72;124944;1102;104095;-79
2021/12/31 05:52:57;;;;;;;86.63;37.53;;;;;;;-2.36;83.17;100823.15;124877;1102;103961;-79
2021/12/31 05:55:28;;;;;;;89.37;38.50;;;;;;;-2.31;82.39;100819.32;124946;1101;103952;-79
2021/12/31 05:57:58;;;;;;;86.97;36.33;;;;;;;-2.27;82.65;100823.99;124920;1102;103937;-78
2021/12/31 06:00:28;;;;;;;71.80;31.13;;;;;;;-2.23;83.26;100849.23;125010;1102;103925;-78
2021/12/31 06:02:58;;;;;;;75.57;32.57;;;;;;;-2.23;82.33;100844.09;125076;1102;103935;-78
2021/12/31 06:05:28;;;;;;;87.47;37.67;;;;;;;-2.19;82.53;100843.59;125153;1101;104493;-79
2021/12/31 06:08:00;;;;;;;77.83;33.40;;;;;;;-2.14;82.37;100840.55;125083;1102;104565;-79
2021/12/31 06:10:31;;;;;;;80.47;35.93;;;;;;;-2.13;82.60;100847.51;125096;1102;103980;-78
2021/12/31 06:13:02;;;;;;;82.93;34.70;;;;;;;-2.11;82.80;100859.72;125198;1102;103952;-78
2021/12/31 06:15:32;;;;;;;87.47;38.23;;;;;;;-2.09;83.59;100862.43;125199;1102;104108;-78
2021/12/31 06:18:03;;;;;;;81.17;36.60;;;;;;;-2.07;83.21;100859.25;125244;1102;104057;-78
2021/12/31 06:20:34;;;;;;;90.20;38.40;;;;;;;-2.04;82.84;100856.03;125221;1102;104197;-78
2021/12/31 06:23:04;;;;;;;88.33;37.30;;;;;;;-2.00;82.58;100863.27;125007;1102;103992;-79
2021/12/31 06:25:36;;;;;;;81.93;35.93;;;;;;;-1.96;82.48;100860.23;125048;1102;103953;-79
2021/12/31 06:28:06;;;;;;;83.67;36.50;;;;;;;-1.92;82.87;100862.30;125084;1102;103951;-79
2021/12/31 06:30:37;;;;;;;77.83;34.73;;;;;;;-1.86;82.46;100870.57;125060;1102;103963;-79
2021/12/31 06:33:11;;;;;;;78.20;33.87;;;;;;;-1.81;82.77;100855.55;124918;1102;104817;-80
2021/12/31 06:35:41;;;;;;;62.40;28.25;;;;;;;-1.77;82.12;100865.37;125017;1102;103957;-79
2021/12/31 06:38:11;;;;;;;80.03;34.87;;;;;;;-1.70;83.20;100864.24;124885;1103;104069;-80
2021/12/31 06:40:41;;;;;;;79.23;34.57;;;;;;;-1.64;83.36;100854.50;124986;1102;103964;-80
2021/12/31 06:43:18;;;;;;;82.13;36.40;;;;;;;-1.59;83.04;100842.97;124891;1102;103954;-80
2021/12/31 06:45:48;;;;;;;82.50;36.37;;;;;;;-1.49;83.51;100844.69;124893;1102;104114;-79
2021/12/31 06:48:20;;;;;;;86.00;37.37;;;;;;;-1.42;82.51;100838.41;124788;1102;103952;-80
2021/12/31 06:50:50;;;;;;;81.60;34.90;;;;;;;-1.34;82.51;100848.62;124952;1102;104018;-80
2021/12/31 06:53:21;;;;;;;88.30;38.37;;;;;;;-1.25;83.00;100838.21;124910;1102;104040;-79
2021/12/31 06:55:51;;;;;;;75.60;33.53;;;;;;;-1.17;83.01;100829.52;124904;1105;104056;-81
2021/12/31 06:58:23;;;;;;;81.33;37.53;;;;;;;-1.06;82.74;100826.95;124863;1102;104410;-80
2021/12/31 07:00:55;;;;;;;78.02;33.65;;;;;;;-0.99;82.79;100834.45;125000;1102;104095;-82
2021/12/31 07:03:27;;;;;;;74.20;33.03;;;;;;;-0.93;82.11;100832.41;124960;1102;103960;-82
2021/12/31 07:05:58;;;;;;;82.07;37.00;;;;;;;-0.84;83.40;100830.63;124988;1102;103929;-79
2021/12/31 07:08:32;;;;;;;81.17;35.93;;;;;;;-0.75;82.64;100828.84;124975;1102;103953;-78
2021/12/31 07:11:07;;;;;;;84.90;36.63;;;;;;;-0.65;82.44;100834.80;124887;1102;103958;-78
2021/12/31 07:13:38;;;;;;;83.43;36.50;;;;;;;-0.57;82.71;100832.08;124916;1102;104009;-78
2021/12/31 07:16:08;;;;;;;80.13;37.30;;;;;;;-0.51;82.38;100816.24;124867;1102;103995;-78
2021/12/31 07:18:40;;;;;;;78.60;36.40;;;;;;;-0.45;82.45;100815.83;124941;1102;104021;-77
2021/12/31 07:21:13;;;;;;;82.47;36.97;;;;;;;-0.42;82.04;100813.52;124851;1102;103980;-78
2021/12/31 07:23:52;;;;;;;83.72;39.30;;;;;;;-0.35;82.40;100817.54;124901;1102;103922;-78
2021/12/31 07:26:25;;;;;;;86.40;38.80;;;;;;;-0.29;82.14;100815.48;124979;1102;104464;-78
2021/12/31 07:28:56;;;;;;;88.53;41.60;;;;;;;-0.21;82.54;100819.59;124811;1102;104005;-78
2021/12/31 07:31:26;;;;;;;85.33;39.37;;;;;;;-0.10;82.37;100826.54;124710;1106;104094;-77
2021/12/31 07:33:57;;;;;;;81.20;38.67;;;;;;;-0.03;82.34;100834.02;124761;1105;105631;-77
2021/12/31 07:36:27;;;;;;;74.83;33.80;;;;;;;-0.03;82.23;100839.19;124959;1102;103960;-76
2021/12/31 07:39:04;;;;;;;77.87;35.00;;;;;;;0.01;82.70;100834.28;124959;1102;104094;-77
2021/12/31 07:41:36;;;;;;;79.90;36.40;;;;;;;0.09;83.16;100823.80;124984;1102;103938;-79
2021/12/31 07:44:07;;;;;;;78.93;36.23;;;;;;;0.15;82.42;100818.25;125219;1102;104053;-76
2021/12/31 07:46:37;;;;;;;77.50;35.03;;;;;;;0.22;82.72;100827.39;125039;1102;103957;-79
2021/12/31 07:49:07;;;;;;;75.00;35.25;;;;;;;0.26;82.46;100832.03;125024;1102;103947;-77
2021/12/31 07:51:38;;;;;;;77.70;35.03;;;;;;;0.35;82.22;100832.79;124921;1102;103970;-78
2021/12/31 07:54:10;;;;;;;78.10;34.77;;;;;;;0.53;82.83;100834.29;124823;1105;104343;-79
2021/12/31 07:56:39;;;;;;;72.55;33.20;;;;;;;0.73;82.00;100845.31;124963;1105;103983;-80
2021/12/31 07:59:11;;;;;;;73.57;34.67;;;;;;;0.86;82.24;100842.05;124843;1102;104008;-78
2021/12/31 08:01:43;;;;;;;67.97;31.57;;;;;;;0.95;82.47;100844.44;124903;1106;104284;-77
2021/12/31 08:04:13;;;;;;;78.27;37.10;;;;;;;1.04;82.67;100833.17;124772;1105;103948;-77
2021/12/31 08:06:43;;;;;;;103.13;55.30;;;;;;;1.17;82.54;100844.45;124806;1102;104002;-78
2021/12/31 08:09:13;;;;;;;99.83;55.27;;;;;;;1.23;82.36;100844.94;125056;1102;104082;-77
2021/12/31 08:11:43;;;;;;;88.70;46.73;;;;;;;1.27;82.68;100841.81;125058;1102;104049;-78
2021/12/31 08:14:15;;;;;;;64.53;33.00;;;;;;;1.32;82.16;100847.34;125061;1102;103936;-78
2021/12/31 08:16:46;;;;;;;77.80;38.50;;;;;;;1.37;82.33;100846.02;125078;1102;103922;-79
2021/12/31 08:19:17;;;;;;;61.30;30.63;;;;;;;1.40;82.17;100829.08;125039;1102;103989;-79
2021/12/31 08:21:51;;;;;;;64.13;31.67;;;;;;;1.47;82.14;100826.97;124864;1102;104038;-78
2021/12/31 08:24:23;;;;;;;49.63;25.03;;;;;;;1.53;82.62;100819.68;125050;1102;103935;-78
2021/12/31 08:27:04;;;;;;;61.23;29.23;;;;;;;1.52;82.00;100825.62;124895;1105;103996;-79
2021/12/31 08:29:35;;;;;;;58.03;28.50;;;;;;;1.48;81.77;100831.33;124792;1105;103958;-78
2021/12/31 08:32:07;;;;;;;63.20;29.93;;;;;;;1.52;82.19;100821.34;125051;1102;103964;-79
2021/12/31 08:34:37;;;;;;;60.17;29.17;;;;;;;1.61;81.66;100818.57;124944;1102;103952;-79
2021/12/31 08:37:11;;;;;;;55.63;26.43;;;;;;;1.64;82.14;100811.05;124862;1105;103968;-77
2021/12/31 08:39:42;;;;;;;50.75;24.95;;;;;;;1.67;82.36;100800.01;125008;1102;103970;-78
2021/12/31 08:42:12;;;;;;;54.20;26.53;;;;;;;1.74;82.46;100792.83;124935;1101;104060;-76
2021/12/31 08:44:43;;;;;;;57.10;27.33;;;;;;;1.86;83.06;100804.91;125001;1102;103961;-77
2021/12/31 08:47:14;;;;;;;60.87;28.10;;;;;;;1.92;82.41;100798.50;124988;1102;104040;-78
2021/12/31 08:49:46;;;;;;;60.70;29.20;;;;;;;1.96;81.79;100795.37;124985;1105;104123;-79
2021/12/31 08:52:16;;;;;;;51.90;27.13;;;;;;;2.03;81.86;100794.13;124825;1106;103922;-78
2021/12/31 08:54:46;;;;;;;57.53;28.63;;;;;;;2.10;81.71;100791.22;124732;1102;103979;-76
2021/12/31 08:57:17;;;;;;;51.53;27.63;;;;;;;2.22;82.12;100783.44;124879;1102;104075;-76
2021/12/31 08:59:48;;;;;;;57.47;29.77;;;;;;;2.38;82.10;100788.04;124866;1102;104105;-78
2021/12/31 09:02:21;;;;;;;59.57;29.17;;;;;;;2.52;82.23;100778.69;124900;1102;103986;-79
2021/12/31 09:04:56;;;;;;;51.50;25.20;;;;;;;2.70;82.15;100776.53;124935;1105;104083;-76
2021/12/31 09:07:29;;;;;;;47.60;23.10;;;;;;;2.83;81.84;100776.59;125007;1102;104057;-77
2021/12/31 09:09:59;;;;;;;52.23;26.07;;;;;;;2.88;81.96;100780.44;124922;1102;104092;-78
2021/12/31 09:12:30;;;;;;;49.73;24.80;;;;;;;2.89;81.51;100786.50;124901;1102;104060;-78
2021/12/31 09:15:03;;;;;;;50.27;24.27;;;;;;;2.87;81.64;100785.51;124914;1102;104005;-77
2021/12/31 09:17:35;;;;;;;50.40;25.33;;;;;;;2.88;81.83;100776.92;125033;1102;103948;-78
2021/12/31 09:20:07;;;;;;;46.77;24.33;;;;;;;2.93;81.89;100777.24;124799;1102;103999;-77
2021/12/31 09:22:40;;;;;;;43.47;20.87;;;;;;;2.92;81.50;100770.28;124898;1103;104089;-77
2021/12/31 09:25:11;;;;;;;47.80;23.30;;;;;;;2.96;82.10;100762.83;124895;1102;104935;-77
2021/12/31 09:27:41;;;;;;;46.30;24.40;;;;;;;2.99;82.05;100765.64;124930;1102;104047;-79
2021/12/31 09:30:13;;;;;;;43.87;21.43;;;;;;;3.09;82.11;100768.87;124685;1106;104242;-79
2021/12/31 09:32:43;;;;;;;40.60;20.00;;;;;;;3.15;81.87;100761.52;125007;1102;103928;-78
2021/12/31 09:35:13;;;;;;;43.97;21.40;;;;;;;3.21;81.66;100764.52;125039;1102;103986;-77
2021/12/31 09:37:43;;;;;;;43.40;22.13;;;;;;;3.29;81.67;100760.78;124967;1102;104011;-78
2021/12/31 09:40:19;;;;;;;45.10;22.27;;;;;;;3.34;81.48;100737.75;125079;1102;103922;-77
2021/12/31 09:43:01;;;;;;;42.20;21.07;;;;;;;3.37;81.82;100735.36;125061;1102;103925;-77
2021/12/31 09:45:31;;;;;;;38.67;19.37;;;;;;;3.38;81.71;100740.66;124991;1102;103973;-77
2021/12/31 09:48:01;;;;;;;43.50;21.53;;;;;;;3.33;81.47;100730.75;125005;1102;103970;-77
2021/12/31 09:50:31;;;;;;;42.00;20.90;;;;;;;3.28;81.11;100734.73;125059;1102;103980;-77
2021/12/31 09:53:01;;;;;;;47.80;23.43;;;;;;;3.24;81.86;100728.41;125120;1102;103952;-79
2021/12/31 09:55:40;;;;;;;44.93;22.63;;;;;;;3.23;81.76;100731.83;124870;1102;104047;-75
2021/12/31 09:58:19;;;;;;;39.63;20.33;;;;;;;3.25;81.22;100732.82;124825;1102;108143;-76
2021/12/31 10:01:01;;;;;;;41.27;21.33;;;;;;;3.30;81.20;100723.65;124871;1103;104072;-77
2021/12/31 10:03:32;;;;;;;41.50;19.80;;;;;;;3.38;81.97;100727.69;124786;1103;103997;-77
2021/12/31 10:06:06;;;;;;;38.40;19.40;;;;;;;3.44;81.55;100732.37;124820;1102;103951;-76
2021/12/31 10:08:45;;;;;;;36.40;17.80;;;;;;;3.42;81.45;100726.19;125041;1102;104085;-76
2021/12/31 10:11:20;;;;;;;40.17;20.40;;;;;;;3.42;80.93;100728.78;125078;1102;103990;-76
2021/12/31 10:13:55;;;;;;;39.83;19.80;;;;;;;3.44;81.57;100729.78;124968;1102;104015;-78
2021/12/31 10:16:27;;;;;;;38.53;19.17;;;;;;;3.47;81.14;100727.39;125055;1102;103955;-76
2021/12/31 10:19:06;;;;;;;38.13;19.37;;;;;;;3.49;80.86;100722.30;125014;1102;104113;-77
2021/12/31 10:21:41;;;;;;;43.10;22.03;;;;;;;3.51;81.07;100720.73;125024;1102;103980;-77
2021/12/31 10:24:25;;;;;;;64.47;33.97;;;;;;;3.43;81.03;100720.22;125060;1102;104050;-76
2021/12/31 10:26:57;;;;;;;78.00;40.50;;;;;;;3.28;81.05;100733.03;125086;1102;103906;-76
2021/12/31 10:29:27;;;;;;;86.03;43.87;;;;;;;3.10;80.52;100727.50;125015;1102;104021;-77
2021/12/31 10:31:58;;;;;;;81.10;42.40;;;;;;;3.00;80.64;100730.23;125078;1102;103954;-76
2021/12/31 10:34:31;;;;;;;79.37;41.80;;;;;;;2.91;80.88;100735.66;125108;1102;104082;-77
2021/12/31 10:37:14;;;;;;;77.10;40.13;;;;;;;2.87;80.53;100725.89;125069;1102;103915;-77
2021/12/31 10:39:45;;;;;;;78.03;39.37;;;;;;;2.83;80.63;100724.75;124859;1102;103967;-78
2021/12/31 10:42:15;;;;;;;74.50;38.67;;;;;;;2.83;80.60;100719.57;125018;1102;104092;-77
2021/12/31 10:44:48;;;;;;;76.07;38.57;;;;;;;2.86;81.05;100704.23;125071;1102;103983;-76
2021/12/31 10:47:24;;;;;;;73.63;37.83;;;;;;;2.90;80.79;100704.45;125045;1102;103947;-77
2021/12/31 10:50:15;;;;;;;72.67;36.80;;;;;;;2.90;80.60;100700.19;124879;1102;104101;-76
2021/12/31 10:52:58;;;;;;;72.17;36.30;;;;;;;2.90;80.20;100691.48;125036;1102;103938;-76
2021/12/31 10:55:33;;;;;;;73.05;35.80;;;;;;;2.87;80.20;100694.79;124931;1102;103983;-78
2021/12/31 10:58:04;;;;;;;67.10;34.60;;;;;;;2.87;80.55;100690.49;125049;1102;103936;-78
2021/12/31 11:00:38;;;;;;;71.00;35.50;;;;;;;2.91;80.42;100694.19;125039;1102;104074;-80
2021/12/31 11:03:11;;;;;;;65.87;34.23;;;;;;;2.97;80.09;100694.61;124983;1102;104073;-82
2021/12/31 11:05:46;;;;;;;68.40;35.67;;;;;;;3.01;80.31;100699.23;124987;1102;103925;-80
2021/12/31 11:08:16;;;;;;;67.67;33.67;;;;;;;3.05;79.96;100689.95;124902;1102;103964;-79
2021/12/31 11:10:47;;;;;;;71.33;35.87;;;;;;;3.14;80.16;100700.96;124983;1102;103970;-79
2021/12/31 11:13:25;;;;;;;67.13;34.43;;;;;;;3.21;79.86;100695.41;124974;1102;104118;-79
2021/12/31 11:15:58;;;;;;;67.80;34.07;;;;;;;3.22;80.05;100696.30;124944;1102;103979;-79
2021/12/31 11:18:33;;;;;;;66.97;34.63;;;;;;;3.21;79.41;100697.09;124999;1102;104003;-80